AirNav   ProFlight Series 2 Aviation Headset
 
 914 users online  

0NJ7 Essex Generating Station Heliport
Newark, New Jersey, USA

GOING TO NEWARK?


FAA INFORMATION EFFECTIVE 18 JUNE 2020

Location

FAA Identifier: 0NJ7
Lat/Long: 40-44-16.0000N 074-07-08.0000W
40-44.266667N 074-07.133333W
40.7377778,-74.1188889
(estimated)
Elevation: 8 ft. / 2 m (estimated)
Variation: 13W (1985)
From city: 2 miles E of NEWARK, NJ
Time zone: UTC -4 (UTC -5 during Standard Time)
Zip code: 07105

Heliport Operations

Heliport use: Private use. Permission required prior to landing
Activation date: 05/1974
Control tower: no
ARTCC: NEW YORK CENTER
FSS: MILLVILLE FLIGHT SERVICE STATION
Attendance: 
Wind indicator: yes
Segmented circle: no

Heliport Communications

WX ASOS at EWR (4 nm SW): PHONE 973-621-2892
WX AWOS-3PT at JRB (5 nm SE): 128.175 (212-425-1534)
WX ASOS at TEB (7 nm N): 132.025 (201-393-0855)
WX AWOS-3 at LDJ (9 nm SW): 124.025 (908-862-7383)
WX ASOS at CDW (11 nm NW): 135.5 (973-575-4417)
WX ASOS at LGA (11 nm E): PHONE 718-672-6317
WX AWOS-3 at MMU (14 nm W): PHONE 973-290-0135
WX ASOS at JFK (17 nm E): 128.725 (718-656-0956)

Nearby radio navigation aids

VOR radial/distance  VOR name  Freq  Var
TEBr212/7.1TETERBORO VOR/DME108.4011W
LGAr268/11.7LA GUARDIA VOR/DME113.1012W
CRIr317/12.7CANARSIE VOR/DME112.3011W
JFKr304/17.0KENNEDY VOR/DME115.9012W
COLr015/25.6COLTS NECK VOR/DME115.4011W
SAXr147/27.4SPARTA VORTAC115.7011W
SBJr082/29.8SOLBERG VOR/DME112.9010W
BWZr107/32.1BROADWAY VOR/DME114.2011W
RBVr038/36.4ROBBINSVILLE VORTAC113.8010W
DPKr277/37.2DEER PARK VOR/DME117.7012W
STWr125/37.4STILLWATER VOR/DME109.6011W

 
NDB name  Hdg/Dist  Freq  Var  ID
TORBY183/4.021412WTE - .
CHATHAM104/14.125413WCAT -.-. .- -
BABYLON291/33.627514WBBN -... -... -.

Heliport Services

Runway Information

Helipad H1

Dimensions: 75 x 75 ft. / 23 x 23 m
Surface: asphalt/dirt, in fair condition
Latitude: 40-44.266667N
Longitude: 074-07.133333W
Elevation: 8.0 ft.
Traffic pattern: leftleft
Markings: none, in fair condition

Heliport Ownership and Management from official FAA records

Ownership: Privately-owned
Owner: PUBLIC SERVICE ELEC & GAS CO.
4000 HADLEY RD., MC 429
SOUTH PLAINFIELD, NJ 07080
Phone (732) 489-5653
Manager: MICHAEL J. TODD
4000 HADLEY RD., MC 429
SOUTH PLAINFIELD, NJ 07080
Phone (732) 489-5653

Additional Remarks

FOR CD CTC NEW YORK APCH AT 800-645-3206.

Instrument Procedures

There are no published instrument procedures at 0NJ7.

Some nearby airports with instrument procedures:

KEWR - Newark Liberty International Airport (4 nm SW)
KJRA - West 30th St Heliport (5 nm E)
KJRB - Downtown Manhattan/Wall Street Heliport (5 nm SE)
6N5 - East 34th Street Heliport (7 nm E)
KTEB - Teterboro Airport (7 nm N)
KLDJ - Linden Airport (9 nm SW)
KCDW - Essex County Airport (11 nm NW)
KLGA - LaGuardia Airport (11 nm E)
KMMU - Morristown Municipal Airport (14 nm W)
N07 - Lincoln Park Airport (15 nm NW)
 
Loc | Ops | Rwys | IFR | FBO | Links
Com | Nav | Svcs | Stats | Notes
Area around 0NJ7 (Essex Generating Station Heliport)
 
Road maps at: MapQuest Bing Google
 
Aerial photo
No photo
 
Sectional chart

 
Airport distance calculator
Flying to Essex Generating Station Heliport? Find the distance to fly.

From to 0NJ7

Sunrise and sunset
Times for 05-Jul-2020
 Local
(UTC-4)
 Zulu
(UTC)
Morning civil twilight05:0009:00
Sunrise05:3309:33
Sunset20:3000:30
Evening civil twilight21:0301:03

Current date and time
Zulu (UTC)  05-Jul-2020 23:02:18
Local (UTC-4)  05-Jul-2020 19:02:18
 
METAR
KEWR 
4nm SW 
052251Z 26008KT 10SM FEW065 BKN250 33/12 A2989 RMK AO2 SLP122 T03330122
KJRB 
5nm SE 
052256Z AUTO 25006KT 10SM CLR 31/18 A2991 RMK AO2 SLP128 T03060183
KNYC 
7nm E 
052251Z AUTO VRB03KT 10SM CLR 30/17 A2993 RMK AO2 SLP124 T03000172 $
KTEB 
8nm N 
052251Z 29005G15KT 10SM CLR 33/12 A2988 RMK AO2 SLP117 T03330122
KLDJ 
9nm SW 
052255Z AUTO 00000KT 10SM CLR A2990 RMK AO2
KLGA 
11nm E 
052251Z 15013KT 10SM FEW060 SCT250 31/17 A2989 RMK AO2 SLP123 T03110167
KCDW 
11nm NW 
052253Z 35003KT 10SM CLR 34/13 A2990 RMK AO2 SLP130 T03390128
KMMU 
14nm W 
052053Z 28003KT 10SM SKC 33/15 A2991
KJFK 
17nm E 
052251Z 17008KT 10SM BKN250 27/23 A2991 RMK AO2 SLP129 T02720228
TAF
KEWR 
4nm SW 
051948Z 0520/0624 32005KT P6SM FEW060 SCT250 FM052100 15009KT P6SM FEW060 SCT250 FM060100 20005KT P6SM FEW080 SCT250 FM060600 26005KT P6SM SCT250 FM061000 30006KT P6SM SCT250 FM061800 16009KT P6SM SCT070 BKN250
KTEB 
8nm N 
051948Z 0520/0624 29006KT P6SM FEW060 SCT250 FM052100 18007KT P6SM FEW080 SCT250 FM060100 VRB04KT P6SM FEW080 SCT250 FM061600 30005KT P6SM FEW080 BKN250 FM062000 18007KT P6SM SCT070 BKN250
KLGA 
11nm E 
051948Z 0520/0624 VRB05KT P6SM FEW050 SCT250 FM052030 18011KT P6SM FEW050 SCT250 FM060100 20008KT P6SM FEW080 SCT250 FM060600 26005KT P6SM SCT250 FM061000 32006KT P6SM SCT250 FM061800 17011KT P6SM SCT070 BKN250
KJFK 
17nm E 
051948Z 0520/0624 19012KT P6SM FEW050 SCT250 FM060100 20008KT P6SM FEW080 SCT250 FM060600 24005KT P6SM SCT250 FM061000 29006KT P6SM SCT250 FM061400 24005KT P6SM FEW080 BKN250 FM061600 17011KT P6SM SCT070 BKN250
NOTAMs
Click for the latest NOTAMs
NOTAMs are issued by the DoD/FAA and will open in a separate window not controlled by AirNav.

 

 
 

Would you like to see your business listed on this page?

 If your business provides an interesting product or service to pilots, flight crews, aircraft, or users of the Essex Generating Station Heliport, you should consider listing it here.  To start the listing process, click on the button below
 
Add a business
 

Other Pages about Essex Generating Station Heliport

Update a link
 
Copyright © AirNav, LLC. All rights reserved. Privacy Policy  Contact